Aviation Digital Data Service (ADDS)

Output produced by METARs form (2324 UTC 23 March 2019)
found at http://www.aviationweather.gov/metar/data/
 
Forecast for: LYBT (BATAJNICA , CS)
Text: TAF LYBT 232300Z 2400/2424 VRB02KT CAVOK TX20/2413Z TN01/2405Z
Forecast period: 0000 UTC 24 March 2019 to 0000 UTC 25 March 2019
Forecast type: FROM: standard forecast or significant change
Winds: variable direction winds at 2 MPH (2 knots; 1.0 m/s)
Visibility: 6 or more miles 10+ km)
Ceiling: unknown
Clouds: missing
Weather: no significant weather forecast for this period